Lowcountry Regional Airport


Codes: KRBW/RBW
Name: Lowcountry Regional Airport
City: Walterboro
Country: United States
Elevation: 101 ft.
Website:
Wikipedia:

Photos at Lowcountry Regional Airport


   Photos courtesy of SpottingLog. You can add your own sightings and photos by signing up for a free trial today.



No photos found.

Weather at Lowcountry Regional Airport


Time (UTC)DescriptionTempratureWindCloud coverageVisibilityPressureHumidity
16-Jun-2024 12:00Few Clouds23°C2 mph, E15%10000m1018hPa91%
16-Jun-2024 15:00Clear Sky29°C4 mph, E0%10000m1019hPa63%
16-Jun-2024 18:00Few Clouds34°C7 mph, E15%10000m1018hPa41%
16-Jun-2024 21:00Light Rain26°C2 mph, SW100%10000m1019hPa77%
17-Jun-2024 00:00Light Rain27°C7 mph, SE84%10000m1019hPa70%
17-Jun-2024 03:00Broken Clouds24°C4 mph, SE76%10000m1020hPa85%
17-Jun-2024 06:00Broken Clouds23°C4 mph, E83%10000m1020hPa89%
17-Jun-2024 09:00Overcast Clouds22°C4 mph, E99%10000m1020hPa91%
17-Jun-2024 12:00Overcast Clouds24°C7 mph, E100%10000m1021hPa77%
17-Jun-2024 15:00Overcast Clouds30°C7 mph, E91%10000m1021hPa44%
17-Jun-2024 18:00Overcast Clouds33°C9 mph, E95%10000m1020hPa34%
17-Jun-2024 21:00Overcast Clouds32°C11 mph, E93%10000m1019hPa32%
18-Jun-2024 00:00Broken Clouds26°C9 mph, SE78%10000m1020hPa56%
18-Jun-2024 03:00Overcast Clouds21°C4 mph, E100%10000m1021hPa77%
18-Jun-2024 06:00Overcast Clouds21°C4 mph, NE100%10000m1021hPa90%
18-Jun-2024 09:00Broken Clouds20°C4 mph, NE63%10000m1021hPa88%
18-Jun-2024 12:00Broken Clouds23°C7 mph, NE80%10000m1022hPa75%
18-Jun-2024 15:00Overcast Clouds29°C7 mph, E87%10000m1022hPa46%
18-Jun-2024 18:00Overcast Clouds33°C11 mph, SE94%10000m1020hPa34%
18-Jun-2024 21:00Overcast Clouds31°C13 mph, E96%10000m1020hPa36%
19-Jun-2024 00:00Broken Clouds25°C9 mph, E67%10000m1021hPa59%
19-Jun-2024 03:00Scattered Clouds22°C4 mph, E26%10000m1023hPa73%
19-Jun-2024 06:00Scattered Clouds20°C7 mph, NE49%10000m1021hPa82%
19-Jun-2024 09:00Scattered Clouds19°C7 mph, NE25%10000m1021hPa84%
19-Jun-2024 12:00Few Clouds23°C9 mph, NE14%10000m1023hPa72%
19-Jun-2024 15:00Clear Sky29°C9 mph, NE3%10000m1023hPa46%
19-Jun-2024 18:00Light Rain31°C9 mph, E39%10000m1022hPa45%
19-Jun-2024 21:00Scattered Clouds31°C13 mph, E40%10000m1021hPa35%
20-Jun-2024 00:00Few Clouds25°C11 mph, E20%10000m1022hPa63%
20-Jun-2024 03:00Clear Sky23°C9 mph, E4%10000m1023hPa73%
20-Jun-2024 06:00Clear Sky21°C7 mph, NE3%10000m1022hPa78%
20-Jun-2024 09:00Clear Sky21°C9 mph, NE0%10000m1021hPa81%
20-Jun-2024 12:00Clear Sky23°C9 mph, NE3%10000m1022hPa74%
20-Jun-2024 15:00Overcast Clouds26°C13 mph, NE91%10000m1022hPa67%
20-Jun-2024 18:00Light Rain27°C11 mph, E96%10000m1021hPa79%
20-Jun-2024 21:00Light Rain27°C11 mph, E92%9363m1021hPa82%
21-Jun-2024 00:00Light Rain24°C9 mph, E77%10000m1022hPa93%
21-Jun-2024 03:00Scattered Clouds23°C7 mph, E29%10000m1023hPa98%
21-Jun-2024 06:00Scattered Clouds22°C4 mph, NE31%10000m1022hPa99%
21-Jun-2024 09:00Light Rain22°C4 mph, NE49%10000m1022hPa99%